Terminal Aerodrome Forecast
Issued by NWS

Home | Current Version | Previous Version | Graphics & Text | Print | Product List | Glossary On
Versions: 1 2 3 4 5 6 7 8 9 10 11 12 13 14 15 16 17
000
FTUS43 KIWX 261700
TAFSBN
TAF
KSBN 261740Z 2618/2718 21012KT P6SM SCT250
     FM270600 19009KT P6SM BKN020
     FM271000 19011KT 5SM BR OVC010=

USA.gov is the U.S. government's official web portal to all federal, state and local government web resources and services.